sensor_id;sensor_type;location;lat;lon;timestamp;pressure;altitude;pressure_sealevel;temperature;humidity
63204;BME280;49297;43.210;27.914;2023-04-01T00:00:49;100395.13;;;7.84;79.26
63204;BME280;49297;43.210;27.914;2023-04-01T00:03:15;100387.38;;;7.82;79.01
63204;BME280;49297;43.210;27.914;2023-04-01T00:05:42;100390.13;;;7.81;79.21
63204;BME280;49297;43.210;27.914;2023-04-01T00:08:08;100388.56;;;7.78;79.55
63204;BME280;49297;43.210;27.914;2023-04-01T00:10:35;100386.44;;;7.72;79.34
63204;BME280;49297;43.210;27.914;2023-04-01T00:13:02;100386.56;;;7.71;79.55
63204;BME280;49297;43.210;27.914;2023-04-01T00:15:28;100383.34;;;7.67;79.55
63204;BME280;49297;43.210;27.914;2023-04-01T00:17:54;100390.56;;;7.65;80.19
63204;BME280;49297;43.210;27.914;2023-04-01T00:20:21;100388.50;;;7.69;79.43
63204;BME280;49297;43.210;27.914;2023-04-01T00:22:47;100381.94;;;7.63;79.42
63204;BME280;49297;43.210;27.914;2023-04-01T00:25:13;100378.72;;;7.59;79.84
63204;BME280;49297;43.210;27.914;2023-04-01T00:27:40;100374.66;;;7.55;79.66
63204;BME280;49297;43.210;27.914;2023-04-01T00:30:06;100379.94;;;7.55;79.55
63204;BME280;49297;43.210;27.914;2023-04-01T00:32:32;100376.69;;;7.52;79.75
63204;BME280;49297;43.210;27.914;2023-04-01T00:34:58;100383.78;;;7.51;80.06
63204;BME280;49297;43.210;27.914;2023-04-01T00:37:25;100372.66;;;7.48;79.67
63204;BME280;49297;43.210;27.914;2023-04-01T00:39:50;100371.84;;;7.47;79.84
63204;BME280;49297;43.210;27.914;2023-04-01T00:42:16;100364.75;;;7.48;79.74
63204;BME280;49297;43.210;27.914;2023-04-01T00:44:44;100364.50;;;7.51;79.58
63204;BME280;49297;43.210;27.914;2023-04-01T00:47:11;100363.53;;;7.52;79.52
63204;BME280;49297;43.210;27.914;2023-04-01T00:49:47;100359.59;;;7.46;79.85
63204;BME280;49297;43.210;27.914;2023-04-01T00:52:14;100353.28;;;7.49;80.04
63204;BME280;49297;43.210;27.914;2023-04-01T00:54:42;100352.53;;;7.47;79.85
63204;BME280;49297;43.210;27.914;2023-04-01T00:57:18;100346.56;;;7.44;79.37
63204;BME280;49297;43.210;27.914;2023-04-01T00:59:46;100350.88;;;7.46;79.09
63204;BME280;49297;43.210;27.914;2023-04-01T01:02:14;100355.16;;;7.47;79.55
63204;BME280;49297;43.210;27.914;2023-04-01T01:04:41;100351.72;;;7.46;79.29
63204;BME280;49297;43.210;27.914;2023-04-01T01:12:24;100357.34;;;7.41;79.23
63204;BME280;49297;43.210;27.914;2023-04-01T01:15:54;100365.25;;;7.41;79.13
63204;BME280;49297;43.210;27.914;2023-04-01T01:36:09;100346.41;;;7.25;79.41
63204;BME280;49297;43.210;27.914;2023-04-01T01:38:38;100339.34;;;7.26;79.73
63204;BME280;49297;43.210;27.914;2023-04-01T01:41:06;100343.53;;;7.28;79.81
63204;BME280;49297;43.210;27.914;2023-04-01T01:43:37;100338.00;;;7.31;79.74
63204;BME280;49297;43.210;27.914;2023-04-01T01:46:06;100356.31;;;7.33;79.41
63204;BME280;49297;43.210;27.914;2023-04-01T01:48:35;100345.63;;;7.34;79.69
63204;BME280;49297;43.210;27.914;2023-04-01T01:51:04;100342.88;;;7.36;80.19
63204;BME280;49297;43.210;27.914;2023-04-01T01:53:30;100345.28;;;7.39;79.98
63204;BME280;49297;43.210;27.914;2023-04-01T01:55:56;100350.53;;;7.39;80.13
63204;BME280;49297;43.210;27.914;2023-04-01T02:01:01;100357.50;;;7.40;79.97
63204;BME280;49297;43.210;27.914;2023-04-01T02:03:29;100353.19;;;7.39;79.87
63204;BME280;49297;43.210;27.914;2023-04-01T02:05:56;100346.22;;;7.38;79.28
63204;BME280;49297;43.210;27.914;2023-04-01T02:08:27;100345.41;;;7.37;79.49
63204;BME280;49297;43.210;27.914;2023-04-01T02:10:57;100349.00;;;7.36;79.70
63204;BME280;49297;43.210;27.914;2023-04-01T02:13:29;100334.84;;;7.37;79.99
63204;BME280;49297;43.210;27.914;2023-04-01T02:15:58;100325.88;;;7.40;79.59
63204;BME280;49297;43.210;27.914;2023-04-01T02:18:25;100330.06;;;7.42;79.66
63204;BME280;49297;43.210;27.914;2023-04-01T02:20:51;100317.84;;;7.41;79.35
63204;BME280;49297;43.210;27.914;2023-04-01T02:23:17;100315.81;;;7.45;79.21
63204;BME280;49297;43.210;27.914;2023-04-01T02:25:44;100311.25;;;7.47;79.59
63204;BME280;49297;43.210;27.914;2023-04-01T02:28:10;100314.47;;;7.51;79.48
63204;BME280;49297;43.210;27.914;2023-04-01T02:30:38;100300.31;;;7.52;79.45
63204;BME280;49297;43.210;27.914;2023-04-01T02:33:06;100308.91;;;7.54;79.40
63204;BME280;49297;43.210;27.914;2023-04-01T02:35:33;100312.28;;;7.56;78.94
63204;BME280;49297;43.210;27.914;2023-04-01T02:37:59;100311.56;;;7.54;79.16
63204;BME280;49297;43.210;27.914;2023-04-01T02:40:26;100307.97;;;7.55;78.97
63204;BME280;49297;43.210;27.914;2023-04-01T02:42:52;100298.13;;;7.57;78.84
63204;BME280;49297;43.210;27.914;2023-04-01T02:45:19;100299.69;;;7.59;78.37
63204;BME280;49297;43.210;27.914;2023-04-01T02:47:45;100290.94;;;7.59;78.63
63204;BME280;49297;43.210;27.914;2023-04-01T02:50:12;100293.44;;;7.60;78.49
63204;BME280;49297;43.210;27.914;2023-04-01T02:52:38;100287.59;;;7.57;78.18
63204;BME280;49297;43.210;27.914;2023-04-01T02:55:06;100277.06;;;7.57;78.88
63204;BME280;49297;43.210;27.914;2023-04-01T02:57:33;100279.81;;;7.55;78.61
63204;BME280;49297;43.210;27.914;2023-04-01T02:59:59;100280.66;;;7.56;78.55
63204;BME280;49297;43.210;27.914;2023-04-01T03:02:25;100272.75;;;7.56;78.19
63204;BME280;49297;43.210;27.914;2023-04-01T03:04:52;100270.84;;;7.58;78.79
63204;BME280;49297;43.210;27.914;2023-04-01T03:07:17;100269.72;;;7.60;77.96
63204;BME280;49297;43.210;27.914;2023-04-01T03:09:43;100270.31;;;7.64;78.09
63204;BME280;49297;43.210;27.914;2023-04-01T03:12:15;100262.28;;;7.66;78.25
63204;BME280;49297;43.210;27.914;2023-04-01T03:14:48;100261.44;;;7.65;78.56
63204;BME280;49297;43.210;27.914;2023-04-01T03:17:13;100269.06;;;7.68;78.11
63204;BME280;49297;43.210;27.914;2023-04-01T03:19:39;100252.31;;;7.69;78.26
63204;BME280;49297;43.210;27.914;2023-04-01T03:22:05;100249.66;;;7.69;78.69
63204;BME280;49297;43.210;27.914;2023-04-01T03:24:31;100247.16;;;7.68;78.56
63204;BME280;49297;43.210;27.914;2023-04-01T03:26:57;100246.34;;;7.67;78.00
63204;BME280;49297;43.210;27.914;2023-04-01T03:29:23;100239.38;;;7.66;78.40
63204;BME280;49297;43.210;27.914;2023-04-01T03:31:49;100233.41;;;7.64;78.01
63204;BME280;49297;43.210;27.914;2023-04-01T03:34:15;100236.19;;;7.62;77.91
63204;BME280;49297;43.210;27.914;2023-04-01T03:36:40;100230.06;;;7.62;78.14
63204;BME280;49297;43.210;27.914;2023-04-01T03:39:06;100238.94;;;7.61;78.51
63204;BME280;49297;43.210;27.914;2023-04-01T03:41:36;100236.47;;;7.59;78.25
63204;BME280;49297;43.210;27.914;2023-04-01T03:44:02;100236.47;;;7.59;77.97
63204;BME280;49297;43.210;27.914;2023-04-01T03:46:28;100240.75;;;7.60;78.36
63204;BME280;49297;43.210;27.914;2023-04-01T03:48:54;100246.00;;;7.60;78.30
63204;BME280;49297;43.210;27.914;2023-04-01T03:51:28;100251.28;;;7.60;78.00
63204;BME280;49297;43.210;27.914;2023-04-01T03:53:54;100244.34;;;7.59;77.82
63204;BME280;49297;43.210;27.914;2023-04-01T03:56:20;100243.78;;;7.56;78.79
63204;BME280;49297;43.210;27.914;2023-04-01T03:58:46;100258.59;;;7.57;77.98
63204;BME280;49297;43.210;27.914;2023-04-01T04:01:14;100257.66;;;7.58;78.79
63204;BME280;49297;43.210;27.914;2023-04-01T04:03:40;100268.91;;;7.60;78.38
63204;BME280;49297;43.210;27.914;2023-04-01T04:06:11;100267.78;;;7.62;78.51
63204;BME280;49297;43.210;27.914;2023-04-01T04:08:38;100265.16;;;7.62;78.09
63204;BME280;49297;43.210;27.914;2023-04-01T04:11:04;100268.50;;;7.65;78.51
63204;BME280;49297;43.210;27.914;2023-04-01T04:15:59;100249.09;;;7.66;78.43
63204;BME280;49297;43.210;27.914;2023-04-01T04:18:25;100257.69;;;7.68;78.06
63204;BME280;49297;43.210;27.914;2023-04-01T04:20:51;100247.72;;;7.71;78.50
63204;BME280;49297;43.210;27.914;2023-04-01T04:23:17;100237.78;;;7.75;77.86
63204;BME280;49297;43.210;27.914;2023-04-01T04:25:56;100245.56;;;7.76;78.02
63204;BME280;49297;43.210;27.914;2023-04-01T04:28:22;100255.72;;;7.81;78.43
63204;BME280;49297;43.210;27.914;2023-04-01T04:30:54;100252.94;;;7.82;78.30
63204;BME280;49297;43.210;27.914;2023-04-01T04:33:21;100247.25;;;7.87;78.55
63204;BME280;49297;43.210;27.914;2023-04-01T04:35:47;100244.25;;;7.92;78.15
63204;BME280;49297;43.210;27.914;2023-04-01T04:38:13;100241.19;;;7.96;77.99
63204;BME280;49297;43.210;27.914;2023-04-01T04:40:54;100233.59;;;8.03;77.92
63204;BME280;49297;43.210;27.914;2023-04-01T04:43:21;100232.94;;;8.11;78.41
63204;BME280;49297;43.210;27.914;2023-04-01T04:45:49;100237.69;;;8.17;78.26
63204;BME280;49297;43.210;27.914;2023-04-01T04:48:15;100238.69;;;8.26;78.67
63204;BME280;49297;43.210;27.914;2023-04-01T04:50:48;100233.56;;;8.34;78.24
63204;BME280;49297;43.210;27.914;2023-04-01T04:53:16;100225.59;;;8.45;78.66
63204;BME280;49297;43.210;27.914;2023-04-01T04:58:12;100228.81;;;8.68;78.05
63204;BME280;49297;43.210;27.914;2023-04-01T05:00:38;100233.81;;;8.81;78.40
63204;BME280;49297;43.210;27.914;2023-04-01T05:03:04;100238.00;;;8.93;78.19
63204;BME280;49297;43.210;27.914;2023-04-01T05:05:30;100233.69;;;9.02;77.34
63204;BME280;49297;43.210;27.914;2023-04-01T05:07:56;100231.16;;;9.10;78.23
63204;BME280;49297;43.210;27.914;2023-04-01T05:10:22;100232.41;;;9.16;77.96
63204;BME280;49297;43.210;27.914;2023-04-01T05:12:49;100221.31;;;9.22;77.18
63204;BME280;49297;43.210;27.914;2023-04-01T05:15:16;100226.16;;;9.27;77.26
63204;BME280;49297;43.210;27.914;2023-04-01T05:17:42;100222.97;;;9.33;77.19
63204;BME280;49297;43.210;27.914;2023-04-01T05:20:08;100224.34;;;9.37;77.10
63204;BME280;49297;43.210;27.914;2023-04-01T05:25:05;100212.78;;;9.48;77.35
63204;BME280;49297;43.210;27.914;2023-04-01T05:27:32;100209.56;;;9.54;77.32
63204;BME280;49297;43.210;27.914;2023-04-01T05:29:58;100200.22;;;9.60;77.67
63204;BME280;49297;43.210;27.914;2023-04-01T05:32:23;100205.91;;;9.65;76.78
63204;BME280;49297;43.210;27.914;2023-04-01T05:34:50;100198.41;;;9.70;76.78
63204;BME280;49297;43.210;27.914;2023-04-01T05:37:16;100208.38;;;9.76;77.01
63204;BME280;49297;43.210;27.914;2023-04-01T05:39:42;100204.63;;;9.79;77.01
63204;BME280;49297;43.210;27.914;2023-04-01T05:42:08;100199.03;;;9.82;77.15
63204;BME280;49297;43.210;27.914;2023-04-01T05:44:35;100200.25;;;9.87;76.66
63204;BME280;49297;43.210;27.914;2023-04-01T05:47:01;100195.69;;;9.89;76.91
63204;BME280;49297;43.210;27.914;2023-04-01T05:49:28;100190.63;;;9.96;76.43
63204;BME280;49297;43.210;27.914;2023-04-01T05:51:54;100183.22;;;10.00;76.76
63204;BME280;49297;43.210;27.914;2023-04-01T05:54:22;100184.31;;;10.07;77.01
63204;BME280;49297;43.210;27.914;2023-04-01T05:56:48;100183.44;;;10.16;76.51
63204;BME280;49297;43.210;27.914;2023-04-01T05:59:13;100179.44;;;10.30;76.06
63204;BME280;49297;43.210;27.914;2023-04-01T06:01:40;100178.66;;;10.47;76.43
63204;BME280;49297;43.210;27.914;2023-04-01T06:04:06;100178.53;;;10.67;76.51
63204;BME280;49297;43.210;27.914;2023-04-01T06:06:32;100173.06;;;10.86;76.03
63204;BME280;49297;43.210;27.914;2023-04-01T06:09:06;100164.28;;;11.04;75.63
63204;BME280;49297;43.210;27.914;2023-04-01T06:11:35;100158.94;;;11.22;75.53
63204;BME280;49297;43.210;27.914;2023-04-01T06:14:15;100163.69;;;11.36;75.19
63204;BME280;49297;43.210;27.914;2023-04-01T06:16:53;100168.41;;;11.51;74.95
63204;BME280;49297;43.210;27.914;2023-04-01T06:27:43;100153.97;;;11.79;73.80
63204;BME280;49297;43.210;27.914;2023-04-01T06:32:55;100156.75;;;11.78;72.90
63204;BME280;49297;43.210;27.914;2023-04-01T06:35:40;100152.16;;;11.80;72.29
63204;BME280;49297;43.210;27.914;2023-04-01T06:38:18;100156.00;;;11.86;71.60
63204;BME280;49297;43.210;27.914;2023-04-01T06:43:19;100141.78;;;11.95;70.88
63204;BME280;49297;43.210;27.914;2023-04-01T06:45:59;100142.16;;;12.00;70.57
63204;BME280;49297;43.210;27.914;2023-04-01T06:48:34;100133.69;;;12.05;70.51
63204;BME280;49297;43.210;27.914;2023-04-01T06:51:22;100140.66;;;12.06;70.18
63204;BME280;49297;43.210;27.914;2023-04-01T06:54:03;100145.31;;;12.12;69.79
63204;BME280;49297;43.210;27.914;2023-04-01T06:56:30;100145.34;;;12.20;69.46
63204;BME280;49297;43.210;27.914;2023-04-01T06:59:15;100132.44;;;12.25;69.27
63204;BME280;49297;43.210;27.914;2023-04-01T07:01:46;100146.03;;;12.30;69.13
63204;BME280;49297;43.210;27.914;2023-04-01T07:04:17;100144.06;;;12.32;68.65
63204;BME280;49297;43.210;27.914;2023-04-01T07:06:47;100152.84;;;12.25;68.61
63204;BME280;49297;43.210;27.914;2023-04-01T07:09:37;100149.34;;;12.24;68.70
63204;BME280;49297;43.210;27.914;2023-04-01T07:12:02;100154.34;;;12.35;68.52
63204;BME280;49297;43.210;27.914;2023-04-01T07:14:39;100144.06;;;12.49;68.41
63204;BME280;49297;43.210;27.914;2023-04-01T07:17:19;100152.41;;;12.62;68.34
63204;BME280;49297;43.210;27.914;2023-04-01T07:28:15;100137.13;;;12.81;67.59
63204;BME280;49297;43.210;27.914;2023-04-01T07:30:50;100133.31;;;12.75;67.49
63204;BME280;49297;43.210;27.914;2023-04-01T07:33:26;100125.34;;;12.75;67.47
63204;BME280;49297;43.210;27.914;2023-04-01T07:43:33;100128.66;;;12.77;67.62
63204;BME280;49297;43.210;27.914;2023-04-01T07:46:17;100116.03;;;12.79;67.58
63204;BME280;49297;43.210;27.914;2023-04-01T07:51:17;100102.75;;;12.79;67.57
63204;BME280;49297;43.210;27.914;2023-04-01T08:01:46;100092.31;;;12.86;67.27
63204;BME280;49297;43.210;27.914;2023-04-01T08:09:42;100085.41;;;13.24;66.81
63204;BME280;49297;43.210;27.914;2023-04-01T08:14:42;100079.16;;;13.01;66.80
63204;BME280;49297;43.210;27.914;2023-04-01T08:25:41;100070.47;;;13.23;67.02
63204;BME280;49297;43.210;27.914;2023-04-01T08:28:19;100065.31;;;13.38;67.00
63204;BME280;49297;43.210;27.914;2023-04-01T08:38:14;100059.94;;;13.86;66.22
63204;BME280;49297;43.210;27.914;2023-04-01T08:56:08;100045.72;;;14.25;65.35
63204;BME280;49297;43.210;27.914;2023-04-01T09:03:37;100046.00;;;14.53;64.77
63204;BME280;49297;43.210;27.914;2023-04-01T09:11:28;100030.66;;;14.63;64.49
63204;BME280;49297;43.210;27.914;2023-04-01T09:27:29;100006.41;;;15.03;63.96
63204;BME280;49297;43.210;27.914;2023-04-01T09:35:36;100001.72;;;15.20;63.56
63204;BME280;49297;43.210;27.914;2023-04-01T09:46:09;99988.56;;;15.18;63.40
63204;BME280;49297;43.210;27.914;2023-04-01T09:48:39;99982.72;;;15.08;63.42
63204;BME280;49297;43.210;27.914;2023-04-01T09:51:27;99978.91;;;15.02;63.68
63204;BME280;49297;43.210;27.914;2023-04-01T10:09:54;99919.91;;;15.06;63.98
63204;BME280;49297;43.210;27.914;2023-04-01T10:23:17;99912.41;;;14.64;64.43
63204;BME280;49297;43.210;27.914;2023-04-01T10:25:55;99913.59;;;14.62;64.77
63204;BME280;49297;43.210;27.914;2023-04-01T10:31:13;99922.34;;;14.71;64.68
63204;BME280;49297;43.210;27.914;2023-04-01T10:34:02;99915.16;;;14.86;65.08
63204;BME280;49297;43.210;27.914;2023-04-01T10:36:47;99909.38;;;14.97;64.91
63204;BME280;49297;43.210;27.914;2023-04-01T10:59:49;99889.38;;;15.81;63.18
63204;BME280;49297;43.210;27.914;2023-04-01T11:10:30;99872.38;;;15.24;63.70
63204;BME280;49297;43.210;27.914;2023-04-01T11:26:14;99857.00;;;15.69;63.42
63204;BME280;49297;43.210;27.914;2023-04-01T11:36:59;99845.38;;;15.34;63.77
63204;BME280;49297;43.210;27.914;2023-04-01T11:44:34;99843.16;;;15.37;63.95
63204;BME280;49297;43.210;27.914;2023-04-01T12:08:12;99799.34;;;17.61;58.49
63204;BME280;49297;43.210;27.914;2023-04-01T12:10:43;99799.56;;;17.66;58.33
63204;BME280;49297;43.210;27.914;2023-04-01T12:13:20;99805.50;;;17.62;58.56
63204;BME280;49297;43.210;27.914;2023-04-01T12:34:13;99794.69;;;16.95;59.50
63204;BME280;49297;43.210;27.914;2023-04-01T12:36:50;99798.78;;;16.84;59.56
63204;BME280;49297;43.210;27.914;2023-04-01T12:39:26;99807.97;;;16.75;59.94
63204;BME280;49297;43.210;27.914;2023-04-01T12:50:49;99807.09;;;16.20;61.25
63204;BME280;49297;43.210;27.914;2023-04-01T12:53:02;99790.75;;;16.01;61.29
63204;BME280;49297;43.210;27.914;2023-04-01T12:55:36;99788.44;;;15.70;62.24
63204;BME280;49297;43.210;27.914;2023-04-01T13:11:09;99765.84;;;14.79;64.47
63204;BME280;49297;43.210;27.914;2023-04-01T13:16:29;99773.59;;;14.74;64.94
63204;BME280;49297;43.210;27.914;2023-04-01T13:36:56;99750.47;;;14.45;66.35
63204;BME280;49297;43.210;27.914;2023-04-01T13:39:31;99737.97;;;14.45;66.23
63204;BME280;49297;43.210;27.914;2023-04-01T13:44:41;99732.66;;;14.60;66.23
63204;BME280;49297;43.210;27.914;2023-04-01T13:49:37;99732.34;;;14.92;65.49
63204;BME280;49297;43.210;27.914;2023-04-01T14:05:23;99740.84;;;15.45;64.10
63204;BME280;49297;43.210;27.914;2023-04-01T14:10:38;99731.69;;;15.26;63.98
63204;BME280;49297;43.210;27.914;2023-04-01T14:26:27;99730.31;;;14.72;65.06
63204;BME280;49297;43.210;27.914;2023-04-01T14:29:17;99726.38;;;14.68;64.95
63204;BME280;49297;43.210;27.914;2023-04-01T14:31:51;99721.88;;;14.69;64.94
63204;BME280;49297;43.210;27.914;2023-04-01T14:34:25;99720.16;;;14.61;65.35
63204;BME280;49297;43.210;27.914;2023-04-01T14:57:58;99679.88;;;14.34;65.79
63204;BME280;49297;43.210;27.914;2023-04-01T15:00:25;99681.28;;;14.30;65.84
63204;BME280;49297;43.210;27.914;2023-04-01T15:03:13;99679.63;;;14.29;65.87
63204;BME280;49297;43.210;27.914;2023-04-01T15:05:56;99675.13;;;14.30;65.75
63204;BME280;49297;43.210;27.914;2023-04-01T15:11:04;99670.44;;;14.32;66.01
63204;BME280;49297;43.210;27.914;2023-04-01T15:39:41;99664.75;;;14.20;65.53
63204;BME280;49297;43.210;27.914;2023-04-01T15:49:56;99643.44;;;13.68;66.62
63204;BME280;49297;43.210;27.914;2023-04-01T15:52:37;99640.50;;;13.63;67.06
63204;BME280;49297;43.210;27.914;2023-04-01T15:55:53;99638.94;;;13.54;67.23
63204;BME280;49297;43.210;27.914;2023-04-01T16:03:09;99657.84;;;13.21;67.98
63204;BME280;49297;43.210;27.914;2023-04-01T16:05:54;99662.88;;;13.16;68.46
63204;BME280;49297;43.210;27.914;2023-04-01T16:10:52;99667.78;;;13.04;68.78
63204;BME280;49297;43.210;27.914;2023-04-01T16:24:13;99691.19;;;12.86;69.53
63204;BME280;49297;43.210;27.914;2023-04-01T16:29:22;99697.88;;;12.82;69.66
63204;BME280;49297;43.210;27.914;2023-04-01T16:34:38;99687.59;;;12.79;70.02
63204;BME280;49297;43.210;27.914;2023-04-01T16:37:27;99692.09;;;12.78;70.08
63204;BME280;49297;43.210;27.914;2023-04-01T16:42:58;99688.59;;;12.77;70.37
63204;BME280;49297;43.210;27.914;2023-04-01T16:45:39;99686.94;;;12.76;70.25
63204;BME280;49297;43.210;27.914;2023-04-01T16:48:20;99685.28;;;12.75;70.47
63204;BME280;49297;43.210;27.914;2023-04-01T16:51:00;99681.97;;;12.73;70.58
63204;BME280;49297;43.210;27.914;2023-04-01T16:58:35;99681.69;;;12.68;70.58
63204;BME280;49297;43.210;27.914;2023-04-01T17:01:07;99683.69;;;12.66;70.64
63204;BME280;49297;43.210;27.914;2023-04-01T17:03:40;99683.69;;;12.66;70.61
63204;BME280;49297;43.210;27.914;2023-04-01T17:08:50;99676.53;;;12.67;70.77
63204;BME280;49297;43.210;27.914;2023-04-01T17:11:38;99669.38;;;12.67;70.88
63204;BME280;49297;43.210;27.914;2023-04-01T17:14:14;99668.56;;;12.67;71.12
63204;BME280;49297;43.210;27.914;2023-04-01T17:16:54;99668.41;;;12.68;71.02
63204;BME280;49297;43.210;27.914;2023-04-01T17:22:07;99663.25;;;12.67;70.91
63204;BME280;49297;43.210;27.914;2023-04-01T17:24:51;99659.78;;;12.66;71.12
63204;BME280;49297;43.210;27.914;2023-04-01T17:35:31;99651.00;;;12.66;71.22
63204;BME280;49297;43.210;27.914;2023-04-01T17:38:03;99653.84;;;12.64;71.10
63204;BME280;49297;43.210;27.914;2023-04-01T17:40:39;99648.22;;;12.59;71.35
63204;BME280;49297;43.210;27.914;2023-04-01T17:58:19;99647.78;;;12.47;72.08
63204;BME280;49297;43.210;27.914;2023-04-01T18:03:47;99662.91;;;12.47;72.45
63204;BME280;49297;43.210;27.914;2023-04-01T18:24:33;99631.38;;;12.21;73.77
63204;BME280;49297;43.210;27.914;2023-04-01T18:29:34;99639.31;;;12.21;74.43
63204;BME280;49297;43.210;27.914;2023-04-01T18:37:14;99650.97;;;12.19;74.38
63204;BME280;49297;43.210;27.914;2023-04-01T18:39:43;99650.97;;;12.19;74.54
63204;BME280;49297;43.210;27.914;2023-04-01T18:50:28;99672.69;;;12.15;75.03
63204;BME280;49297;43.210;27.914;2023-04-01T18:53:08;99679.00;;;12.14;75.51
63204;BME280;49297;43.210;27.914;2023-04-01T18:55:42;99694.22;;;12.20;75.35
63204;BME280;49297;43.210;27.914;2023-04-01T19:03:32;99715.78;;;12.25;74.96
63204;BME280;49297;43.210;27.914;2023-04-01T19:06:00;99713.13;;;12.25;74.99
63204;BME280;49297;43.210;27.914;2023-04-01T19:08:35;99699.38;;;12.22;75.04
63204;BME280;49297;43.210;27.914;2023-04-01T19:11:20;99701.38;;;12.19;74.82
63204;BME280;49297;43.210;27.914;2023-04-01T19:21:38;99704.88;;;12.12;75.27
63204;BME280;49297;43.210;27.914;2023-04-01T19:27:55;99704.03;;;12.11;75.41
63204;BME280;49297;43.210;27.914;2023-04-01T19:30:02;99707.53;;;12.12;75.60
63204;BME280;49297;43.210;27.914;2023-04-01T19:32:43;99718.50;;;12.09;75.66
63204;BME280;49297;43.210;27.914;2023-04-01T19:35:29;99727.75;;;12.13;76.16
63204;BME280;49297;43.210;27.914;2023-04-01T19:40:34;99728.41;;;12.15;76.25
63204;BME280;49297;43.210;27.914;2023-04-01T19:43:15;99727.09;;;12.11;76.26
63204;BME280;49297;43.210;27.914;2023-04-01T19:51:08;99729.28;;;12.07;77.05
63204;BME280;49297;43.210;27.914;2023-04-01T19:56:18;99742.72;;;12.06;77.07
63204;BME280;49297;43.210;27.914;2023-04-01T20:01:35;99727.13;;;12.03;76.89
63204;BME280;49297;43.210;27.914;2023-04-01T20:04:03;99716.69;;;12.01;76.72
63204;BME280;49297;43.210;27.914;2023-04-01T20:12:04;99741.41;;;12.02;75.85
63204;BME280;49297;43.210;27.914;2023-04-01T20:17:13;99722.47;;;12.05;74.93
63204;BME280;49297;43.210;27.914;2023-04-01T20:20:26;99724.47;;;12.03;74.66
63204;BME280;49297;43.210;27.914;2023-04-01T20:25:10;99721.00;;;12.02;74.78
63204;BME280;49297;43.210;27.914;2023-04-01T20:27:41;99715.88;;;12.00;74.66
63204;BME280;49297;43.210;27.914;2023-04-01T20:40:49;99740.56;;;12.01;73.91
63204;BME280;49297;43.210;27.914;2023-04-01T20:51:12;99735.75;;;11.88;74.74
63204;BME280;49297;43.210;27.914;2023-04-01T20:53:44;99740.41;;;11.86;74.77
63204;BME280;49297;43.210;27.914;2023-04-01T20:56:30;99732.28;;;11.88;74.25
63204;BME280;49297;43.210;27.914;2023-04-01T21:09:19;99761.47;;;11.88;71.74
63204;BME280;49297;43.210;27.914;2023-04-01T21:14:59;99775.06;;;11.93;71.88
63204;BME280;49297;43.210;27.914;2023-04-01T21:17:34;99791.00;;;11.93;72.14
63204;BME280;49297;43.210;27.914;2023-04-01T22:08:01;99839.50;;;11.28;77.92
63204;BME280;49297;43.210;27.914;2023-04-01T22:15:23;99845.81;;;11.27;77.88
63204;BME280;49297;43.210;27.914;2023-04-01T22:21:09;99864.38;;;11.27;77.96
63204;BME280;49297;43.210;27.914;2023-04-01T22:23:42;99874.13;;;11.26;78.08
63204;BME280;49297;43.210;27.914;2023-04-01T22:26:14;99875.78;;;11.27;77.88
63204;BME280;49297;43.210;27.914;2023-04-01T22:31:10;99886.53;;;11.26;77.88
63204;BME280;49297;43.210;27.914;2023-04-01T22:33:42;99882.22;;;11.24;77.93
63204;BME280;49297;43.210;27.914;2023-04-01T22:36:16;99868.31;;;11.22;77.97
63204;BME280;49297;43.210;27.914;2023-04-01T22:41:19;99869.78;;;11.17;77.98
63204;BME280;49297;43.210;27.914;2023-04-01T22:43:51;99880.53;;;11.15;78.14
63204;BME280;49297;43.210;27.914;2023-04-01T22:49:13;99875.06;;;11.09;78.51
63204;BME280;49297;43.210;27.914;2023-04-01T22:59:26;99889.66;;;11.13;78.77
63204;BME280;49297;43.210;27.914;2023-04-01T23:04:59;99901.91;;;11.14;78.44
63204;BME280;49297;43.210;27.914;2023-04-01T23:07:39;99898.44;;;11.13;78.09
63204;BME280;49297;43.210;27.914;2023-04-01T23:10:27;99905.56;;;11.13;77.83
63204;BME280;49297;43.210;27.914;2023-04-01T23:12:57;99894.81;;;11.14;77.03
63204;BME280;49297;43.210;27.914;2023-04-01T23:15:24;99890.16;;;11.16;76.37
63204;BME280;49297;43.210;27.914;2023-04-01T23:22:59;99909.06;;;11.21;74.18
63204;BME280;49297;43.210;27.914;2023-04-01T23:30:51;99912.84;;;11.19;72.53
63204;BME280;49297;43.210;27.914;2023-04-01T23:33:21;99910.03;;;11.20;72.29
63204;BME280;49297;43.210;27.914;2023-04-01T23:38:34;99908.72;;;11.16;71.28
63204;BME280;49297;43.210;27.914;2023-04-01T23:41:00;99902.59;;;11.16;70.76
63204;BME280;49297;43.210;27.914;2023-04-01T23:43:29;99900.75;;;11.16;70.06
63204;BME280;49297;43.210;27.914;2023-04-01T23:46:00;99908.03;;;11.14;68.57
63204;BME280;49297;43.210;27.914;2023-04-01T23:48:43;99912.84;;;11.11;68.16
63204;BME280;49297;43.210;27.914;2023-04-01T23:51:29;99911.47;;;11.07;67.55
63204;BME280;49297;43.210;27.914;2023-04-01T23:54:04;99917.13;;;11.03;66.79
63204;BME280;49297;43.210;27.914;2023-04-01T23:56:43;99914.94;;;10.99;66.61
63204;BME280;49297;43.210;27.914;2023-04-01T23:59:22;99913.91;;;10.92;66.48
